Latest Weather Observations for Mount Gellibrand

IDV60801

Issued at 7:02 am EST Monday 6 July 2015 (issued every 30 minutes, with the page automatically refreshed every 10 minutes)

About weather observations | Map of weather stations | Latest weather observations for VIC | Other Formats
Station Details ID: 090035 Name: MOUNT GELLIBRAND Lat: -38.23 Lon: 143.79 Height: 261.0 m
Data from the previous 72 hours. | See also: Recent months at Mount Gellibrand
Date/Time
EST
Temp
°C
App
Temp
°C
Dew
Point
Rel
Hum
%
Delta-T
°C
Wind Press
QNH
hPa
Press
MSL
hPa
Rain
since 9 am
mm
Dir
 
Spd
km/h
Gust
km/h
Spd
kts
Gust
kts
06/07:00am 7.6 -1.3 3.1 73 1.9 NNW 39 44 21 24 1013.3 1013.7 0.0
06/06:30am 7.6 -0.2 3.1 73 1.9 NNW 33 39 18 21 1013.5 1013.9 0.0
06/06:00am 7.7 -0.4 3.0 72 2.0 NNW 35 43 19 23 1013.3 1013.7 0.0
06/05:30am 7.4 -0.8 2.9 73 1.9 NNW 35 43 19 23 1013.4 1013.8 0.0
06/05:00am 7.8 -1.1 3.1 72 2.0 NNW 39 48 21 26 1013.3 1013.7 0.0
06/04:30am 7.8 -1.9 2.9 71 2.1 NNW 43 50 23 27 1013.3 1013.7 0.0
06/04:00am 7.7 -0.8 3.0 72 2.0 NNW 37 46 20 25 1013.6 1014.0 0.0
06/03:30am 7.9 -0.7 2.8 70 2.2 NNW 37 46 20 25 1013.6 1014.0 0.0
06/03:00am 7.8 -1.1 2.9 71 2.1 NNW 39 48 21 26 1013.9 1014.3 0.0
06/02:30am 7.8 -1.2 2.7 70 2.2 NNW 39 46 21 25 1014.0 1014.4 0.0
06/02:00am 8.2 -1.1 2.9 69 2.3 NNW 41 50 22 27 1014.1 1014.5 0.0
06/01:30am 8.5 -0.8 2.7 67 2.5 NNW 41 48 22 26 1014.3 1014.7 0.0
06/01:00am 8.7 -0.2 2.9 67 2.5 NNW 39 46 21 25 1014.5 1014.9 0.0
06/12:30am 8.8 -0.1 2.8 66 2.6 NNW 39 46 21 25 1014.6 1015.0 0.0
06/12:00am 8.9 0.0 2.9 66 2.6 NNW 39 46 21 25 1014.7 1015.1 0.0
 
Date/Time
EST
Temp
°C
App
Temp
°C
Dew
Point
Rel
Hum
%
Delta-T
°C
Wind Press
QNH
hPa
Press
MSL
hPa
Rain
since 9 am
mm
Dir
 
Spd
km/h
Gust
km/h
Spd
kts
Gust
kts
05/11:30pm 9.1 0.6 3.1 66 2.6 NNW 37 44 20 24 1014.9 1015.3 0.0
05/11:00pm 9.3 0.4 3.1 65 2.7 NNW 39 46 21 25 1014.8 1015.2 0.0
05/10:30pm 9.4 0.5 3.2 65 2.7 NNW 39 48 21 26 1015.0 1015.4 0.0
05/10:00pm 9.5 0.7 3.5 66 2.6 NNW 39 48 21 26 1015.1 1015.5 0.0
05/09:30pm 9.3 0.5 3.7 68 2.5 NNW 39 44 21 24 1015.2 1015.6 0.0
05/09:00pm 9.3 1.3 3.9 69 2.4 NNW 35 43 19 23 1015.4 1015.8 0.0
05/08:30pm 9.2 1.6 4.0 70 2.3 NNW 33 39 18 21 1015.4 1015.8 0.0
05/08:00pm 9.5 1.6 4.3 70 2.3 NNW 35 41 19 22 1015.6 1016.0 0.0
05/07:30pm 9.5 2.0 4.3 70 2.3 NNW 33 39 18 21 1015.7 1016.2 0.0
05/07:00pm 9.6 2.3 4.6 71 2.3 NNW 32 37 17 20 1015.9 1016.3 0.0
05/06:30pm 9.8 2.4 4.8 71 2.3 NNW 33 41 18 22 1015.9 1016.3 0.0
05/06:00pm 9.9 3.9 5.3 73 2.1 NNW 26 28 14 15 1016.1 1016.5 0.0
05/05:30pm 10.2 3.8 5.2 71 2.3 NW 28 32 15 17 1015.9 1016.3 0.0
05/05:00pm 10.6 4.2 5.4 70 2.4 NNW 28 32 15 17 1015.6 1016.0 0.0
05/04:30pm 11.3 3.5 5.0 65 2.9 NW 35 41 19 22 1015.6 1016.0 0.0
05/04:00pm 12.4 3.9 5.3 62 3.3 NW 39 46 21 25 1015.7 1016.2 0.0
05/03:30pm 12.8 4.0 5.5 61 3.5 NNW 41 48 22 26 1015.7 1016.2 0.0
05/03:00pm 13.5 4.9 6.4 62 3.4 NNW 41 50 22 27 1015.9 1016.3 0.0
05/02:30pm 12.7 3.4 5.8 63 3.3 NNW 44 54 24 29 1015.9 1016.3 0.0
05/02:00pm 13.2 3.5 5.9 61 3.5 NNW 46 54 25 29 1015.7 1016.2 0.0
05/01:30pm 12.5 2.7 5.2 61 3.4 NNW 46 57 25 31 1016.3 1016.7 0.0
05/01:00pm 12.4 3.0 5.6 63 3.2 NNW 44 56 24 30 1016.6 1017.0 0.0
05/12:30pm 12.0 2.8 5.4 64 3.1 NNW 43 50 23 27 1017.1 1017.5 0.0
05/12:00pm 11.0 2.1 5.1 67 2.7 NW 41 48 22 26 1017.5 1017.9 0.0
05/11:30am 10.9 1.6 5.2 68 2.6 NNW 43 50 23 27 1017.9 1018.3 0.0
05/11:00am 10.1 0.7 4.7 69 2.5 NW 43 52 23 28 1018.2 1018.6 0.0
05/10:30am 9.4 1.6 4.8 73 2.1 NW 35 43 19 23 1018.6 1019.0 0.0
05/10:00am 7.9 0.4 4.5 79 1.5 NW 33 37 18 20 1018.6 1019.0 0.0
05/09:30am 7.1 -0.3 4.1 81 1.3 NW 32 35 17 19 1018.7 1019.1 0.0
05/09:00am 6.7 -0.7 3.9 82 1.2 NW 32 37 17 20 1018.5 1018.9 0.0
05/08:30am 5.7 -1.8 3.4 85 1.0 NNW 32 37 17 20 1018.3 1018.7 0.0
05/08:00am 5.7 -1.8 3.5 86 0.9 NNW 32 35 17 19 1018.4 1018.8 0.0
05/07:30am 5.8 -1.8 3.8 87 0.9 NNW 33 35 18 19 1018.3 1018.7 0.0
05/07:00am 5.8 -1.8 3.8 87 0.9 NNW 33 39 18 21 1018.3 1018.7 0.0
05/06:30am 5.8 -1.3 3.8 87 0.9 NNW 30 32 16 17 1018.3 1018.7 0.0
05/06:00am 6.5 -0.9 4.0 84 1.1 NW 32 35 17 19 1018.3 1018.7 0.0
05/05:30am 6.6 -0.3 4.4 86 1.0 NW 30 33 16 18 1018.3 1018.7 0.0
05/05:00am 6.5 -0.5 4.2 85 1.0 NW 30 33 16 18 1018.3 1018.7 0.0
05/04:30am 6.9 0.0 4.7 86 1.0 NW 30 32 16 17 1018.4 1018.8 0.0
05/04:00am 6.8 0.3 4.8 87 0.9 NW 28 32 15 17 1018.3 1018.7 0.0
05/03:30am 7.1 -0.1 5.1 87 0.9 NNW 32 33 17 18 1018.3 1018.7 0.0
05/03:00am 7.5 0.7 5.3 86 1.0 NNW 30 35 16 19 1018.6 1019.0 0.0
05/02:30am 7.8 1.4 5.4 85 1.1 NNW 28 32 15 17 1018.8 1019.2 0.0
05/02:00am 8.0 0.9 5.5 84 1.1 NW 32 35 17 19 1018.7 1019.1 0.0
05/01:30am 8.0 1.3 5.6 85 1.1 NW 30 33 16 18 1018.9 1019.4 0.0
05/01:00am 8.0 1.3 5.8 86 1.0 NW 30 33 16 18 1019.2 1019.7 0.0
05/12:30am 7.8 1.1 5.4 85 1.1 NW 30 33 16 18 1019.4 1019.9 0.0
05/12:00am 7.8 1.1 5.8 87 0.9 NW 30 33 16 18 1019.6 1020.1 0.0
 
Date/Time
EST
Temp
°C
App
Temp
°C
Dew
Point
Rel
Hum
%
Delta-T
°C
Wind Press
QNH
hPa
Press
MSL
hPa
Rain
since 9 am
mm
Dir
 
Spd
km/h
Gust
km/h
Spd
kts
Gust
kts
04/11:30pm 7.4 0.7 5.4 87 0.9 NW 30 32 16 17 1019.9 1020.3 0.0
04/11:00pm 7.4 1.0 5.4 87 0.9 NW 28 30 15 16 1020.0 1020.4 0.0
04/10:30pm 7.6 1.2 5.4 86 1.0 NW 28 32 15 17 1020.1 1020.5 0.0
04/10:00pm 7.7 1.0 5.7 87 0.9 NW 30 33 16 18 1020.2 1020.6 0.0
04/09:30pm 7.6 0.9 5.7 88 0.9 NW 30 33 16 18 1020.2 1020.6 0.0
04/09:00pm 7.8 1.2 6.1 89 0.8 NW 30 33 16 18 1020.2 1020.6 0.0
04/08:30pm 8.1 2.0 6.6 90 0.7 NW 28 32 15 17 1020.4 1020.8 0.0
04/08:00pm 8.1 2.4 6.7 91 0.7 NW 26 30 14 16 1020.4 1020.8 0.0
04/07:30pm 8.4 2.1 7.2 92 0.6 NW 30 35 16 19 1020.3 1020.7 0.0
04/07:00pm 8.4 1.7 7.5 94 0.4 WNW 32 37 17 20 1020.4 1020.8 0.0
04/06:30pm 8.5 2.2 7.6 94 0.4 WNW 30 35 16 19 1020.4 1020.8 0.0
04/06:00pm 8.6 2.4 7.7 94 0.4 NW 30 35 16 19 1020.0 1020.4 0.0
04/05:30pm 8.7 2.5 7.8 94 0.4 NW 30 33 16 18 1020.0 1020.4 0.0
04/05:00pm 9.0 2.9 8.1 94 0.4 NW 30 37 16 20 1020.0 1020.4 0.0
04/04:30pm 9.3 3.2 8.1 92 0.6 NW 30 37 16 20 1020.1 1020.5 0.0
04/04:00pm 9.9 2.7 7.8 87 1.0 WNW 35 43 19 23 1020.0 1020.4 0.0
04/03:30pm 10.2 3.0 7.8 85 1.2 WNW 35 43 19 23 1020.1 1020.5 0.0
04/03:00pm 10.3 3.8 8.1 86 1.1 WNW 32 39 17 21 1020.0 1020.4 0.0
04/02:30pm 10.3 3.5 7.7 84 1.3 WNW 33 44 18 24 1019.6 1020.1 0.0
04/02:00pm 10.1 3.2 7.3 83 1.3 WNW 33 41 18 22 1019.9 1020.3 0.0
04/01:30pm 10.1 2.8 7.3 83 1.4 WNW 35 44 19 24 1020.0 1020.4 0.0
04/01:00pm 9.6 2.6 6.7 82 1.4 WNW 33 43 18 23 1020.3 1020.7 0.0
04/12:30pm 9.4 1.9 6.5 82 1.4 WNW 35 41 19 22 1020.6 1021.0 0.0
04/12:00pm 9.1 1.5 6.0 81 1.4 WNW 35 46 19 25 1020.9 1021.3 0.0
04/11:30am 8.5 1.4 5.4 81 1.4 WNW 32 37 17 20 1021.3 1021.7 0.0
04/11:00am 8.0 0.6 4.9 81 1.4 WNW 33 43 18 23 1021.5 1021.9 0.0
04/10:30am 7.7 1.3 5.0 83 1.2 WNW 28 33 15 18 1021.7 1022.1 0.0
04/10:00am 7.5 1.0 4.8 83 1.2 WNW 28 33 15 18 1021.5 1021.9 0.0
04/09:30am 7.4 0.9 4.5 82 1.3 WNW 28 33 15 18 1021.4 1021.8 0.0
04/09:00am 7.0 0.8 4.3 83 1.2 WNW 26 32 14 17 1021.3 1021.7 0.0
04/08:30am 6.5 1.0 3.8 83 1.2 WNW 22 26 12 14 1021.2 1021.6 0.0
04/08:00am 6.4 0.0 3.2 80 1.4 NW 26 32 14 17 1021.1 1021.5 0.0
04/07:30am 6.2 -0.2 3.0 80 1.4 NW 26 33 14 18 1020.9 1021.3 0.0
04/07:00am 5.9 -0.6 2.9 81 1.3 NW 26 33 14 18 1021.1 1021.5 0.0
04/06:30am 6.3 -0.7 2.2 75 1.7 NW 28 33 15 18 1020.7 1021.1 0.0
04/06:00am 6.3 -1.1 2.0 74 1.8 NW 30 35 16 19 1020.5 1020.9 0.0
04/05:30am 6.3 -0.7 1.8 73 1.8 NW 28 33 15 18 1020.6 1021.0 0.0
04/05:00am 6.1 0.6 2.0 75 1.7 NW 20 28 11 15 1020.9 1021.3 0.0
04/04:30am 6.2 -1.2 1.9 74 1.8 NW 30 35 16 19 1020.6 1021.0 0.0
04/04:00am 6.3 -0.3 1.8 73 1.8 NW 26 32 14 17 1020.7 1021.1 0.0
04/03:30am 6.4 -0.2 1.9 73 1.9 NW 26 30 14 16 1021.0 1021.4 0.0
04/03:00am 6.3 -0.2 2.4 76 1.6 NW 26 32 14 17 1021.2 1021.6 0.0
04/02:30am 6.1 -0.1 2.2 76 1.6 NW 24 28 13 15 1021.6 1022.0 0.0
04/02:00am 6.0 -0.2 2.3 77 1.5 NW 24 26 13 14 1021.8 1022.2 0.0
04/01:30am 6.1 0.3 2.2 76 1.6 NW 22 26 12 14 1022.1 1022.5 0.0
04/01:00am 6.0 0.5 2.1 76 1.6 NW 20 22 11 12 1022.4 1022.9 0.0
04/12:30am 5.9 0.0 2.0 76 1.6 NW 22 26 12 14 1022.7 1023.2 0.0
04/12:00am 5.8 -0.1 1.9 76 1.6 NW 22 26 12 14 1023.0 1023.5 0.0
 
Date/Time
EST
Temp
°C
App
Temp
°C
Dew
Point
Rel
Hum
%
Delta-T
°C
Wind Press
QNH
hPa
Press
MSL
hPa
Rain
since 9 am
mm
Dir
 
Spd
km/h
Gust
km/h
Spd
kts
Gust
kts
03/11:30pm 5.7 -0.2 2.0 77 1.5 NW 22 28 12 15 1023.0 1023.5 0.0
03/11:00pm 5.6 -0.6 2.1 78 1.4 NW 24 30 13 16 1023.0 1023.5 0.0
03/10:30pm 5.6 -0.6 2.1 78 1.4 NW 24 28 13 15 1023.1 1023.6 0.0
03/10:00pm 5.6 -0.2 2.1 78 1.4 NW 22 26 12 14 1023.3 1023.8 0.0
03/09:30pm 5.4 -0.1 1.9 78 1.4 NNW 20 24 11 13 1023.6 1024.1 0.0
03/09:00pm 5.5 0.0 2.0 78 1.4 NNW 20 22 11 12 1023.6 1024.1 0.0
03/08:30pm 5.4 -0.5 1.9 78 1.4 NW 22 24 12 13 1023.9 1024.3 0.0
03/08:00pm 5.6 -0.3 1.7 76 1.6 NNW 22 26 12 14 1024.0 1024.4 0.0
03/07:30pm 5.4 -0.5 1.5 76 1.6 NW 22 24 12 13 1024.2 1024.6 0.0
03/07:00pm 5.8 0.2 1.2 72 1.8 NW 20 24 11 13 1024.1 1024.5 0.0
03/06:30pm 5.7 -0.7 1.1 72 1.8 NW 24 28 13 15 1024.3 1024.7 0.0
03/06:00pm 5.8 -0.6 1.2 72 1.8 NW 24 28 13 15 1024.5 1024.9 0.0
03/05:30pm 6.3 -0.4 1.4 71 2.0 NW 26 32 14 17 1024.5 1024.9 0.0
03/05:00pm 6.7 1.1 1.4 69 2.1 NW 20 26 11 14 1024.7 1025.1 0.0
03/04:30pm 6.9 1.0 1.4 68 2.2 NW 22 30 12 16 1024.7 1025.1 0.0
03/04:00pm 7.1 0.3 0.8 64 2.5 NW 26 32 14 17 1024.8 1025.2 0.0
03/03:30pm 7.6 1.2 1.0 63 2.7 WNW 24 30 13 16 1025.1 1025.5 0.0
03/03:00pm 7.7 0.9 0.7 61 2.8 WNW 26 32 14 17 1025.3 1025.7 0.0
03/02:30pm 7.7 0.4 0.2 59 3.0 WNW 28 33 15 18 1025.2 1025.6 0.0
03/02:24pm 7.7 0.1 0.4 60 2.9 WNW 30 35 16 19 1025.2 1025.6 0.0
03/02:00pm 8.2 -0.7 0.7 59 3.0 NW 37 44 20 24 1025.3 1025.7 0.0
03/01:49pm 8.5 1.4 1.4 61 3.0 WNW 28 46 15 25 1025.3 1025.7 0.0
03/01:30pm 8.2 1.2 1.8 64 2.7 NW 28 33 15 18 1026.0 1026.5 0.0
03/01:00pm 7.7 0.7 1.8 66 2.4 WNW 28 35 15 19 1026.3 1026.8 0.0
03/12:30pm 8.2 0.8 2.0 65 2.6 NW 30 35 16 19 1026.6 1027.1 0.0
03/12:00pm 8.6 2.8 2.2 64 2.7 WNW 22 28 12 15 1026.8 1027.3 0.0
03/11:30am 7.8 3.7 4.6 80 1.4 NW 15 20 8 11 1027.3 1027.8 0.0
03/11:00am 6.2 2.2 4.7 90 0.7 NW 15 17 8 9 1027.7 1028.2 0.0
03/10:30am 5.4 1.7 4.2 92 0.5 NW 13 15 7 8 1027.8 1028.3 0.0
03/10:00am 4.7 0.9 3.7 93 0.4 NW 13 15 7 8 1028.1 1028.5 0.0
03/09:30am 4.6 1.5 3.6 93 0.4 NW 9 11 5 6 1028.2 1028.6 0.0
03/09:00am 4.3 0.0 3.3 93 0.4 WNW 15 17 8 9 1028.1 1028.5 0.2
03/08:30am 4.1 -0.6 3.1 93 0.4 W 17 20 9 11 1028.1 1028.5 0.2
03/08:00am 3.9 -0.5 2.7 92 0.5 WNW 15 19 8 10 1027.6 1028.1 0.2
03/07:30am 3.9 -0.9 2.7 92 0.5 WNW 17 20 9 11 1027.5 1028.0 0.2

Other Formats:

Comma delimited format used in spreadsheet applications
http://www.bom.gov.au/fwo/IDV60801/IDV60801.95845.axf

JavaScript Object Notation format (JSON) in row-major order
http://www.bom.gov.au/fwo/IDV60801/IDV60801.95845.json